.
WxDataArchive / Data Records for 2009-01-05
2009-01-04 January 2009 2009-01-06

Data Records for Monday, 05 January 2009

Time	Temp	Chill	HIndex	Humid	Dewpt	 Wind 	HiWind	WindDir	Rain 	Barom 
-----	----	-----	------	-----	-----	------	------	-------	-----	----- 
00:00	27.8	27.8	27.8	70	19.3	2	5	315	0.00	30.227 
00:05	27.6	27.6	27.6	70	19.1	2	4	248	0.00	30.224 
00:10	27.5	27.5	27.5	70	19.0	2	4	338	0.00	30.224 
00:15	27.3	27.3	27.3	70	18.8	1	5	338	0.00	30.223 
00:20	27.2	27.2	27.2	70	18.7	1	6	270	0.00	30.221 
00:25	27.0	27.0	27.0	70	18.5	2	7	248	0.00	30.223 
00:30	26.7	26.7	26.7	70	18.3	1	4	338	0.00	30.223 
00:35	26.6	26.6	26.6	70	18.2	2	5	292	0.00	30.226 
00:40	26.4	26.4	26.4	69	17.6	2	5	292	0.00	30.228 
00:45	26.1	26.1	26.1	69	17.3	1	4	248	0.00	30.231 
00:50	26.0	26.0	26.0	69	17.2	2	5	270	0.00	30.231 
00:55	25.8	25.8	25.8	69	17.1	1	4	338	0.00	30.231 
01:00	25.8	25.8	25.8	69	17.1	1	6	270	0.00	30.236 
01:05	25.7	25.7	25.7	69	17.0	1	3	315	0.00	30.234 
01:10	25.6	25.6	25.6	69	16.9	1	4	315	0.00	30.234 
01:15	25.4	25.4	25.4	69	16.7	1	2	270	0.00	30.233 
01:20	25.3	25.3	25.3	69	16.6	1	3	315	0.00	30.231 
01:25	25.3	25.3	25.3	69	16.6	1	6	270	0.00	30.234 
01:30	25.1	25.1	25.1	69	16.4	1	4	270	0.00	30.240 
01:35	25.0	25.0	25.0	69	16.3	0	3	248	0.00	30.242 
01:40	25.0	25.0	25.0	68	16.0	1	4	292	0.00	30.242 
01:45	25.0	25.0	25.0	67	15.6	1	3	315	0.00	30.248 
01:50	25.1	25.1	25.1	67	15.7	1	3	292	0.00	30.253 
01:55	25.0	25.0	25.0	67	15.6	0	3	292	0.00	30.248 
02:00	25.1	25.1	25.1	67	15.7	1	4	292	0.00	30.246 
02:05	25.1	25.1	25.1	67	15.7	1	4	248	0.00	30.249 
02:10	25.1	25.1	25.1	67	15.7	0	3	0	0.00	30.257 
02:15	25.0	25.0	25.0	67	15.6	1	3	270	0.00	30.262 
02:20	25.0	25.0	25.0	67	15.6	1	4	292	0.00	30.263 
02:25	25.0	25.0	25.0	67	15.6	1	5	338	0.00	30.261 
02:30	24.8	24.8	24.8	67	15.4	1	3	315	0.00	30.261 
02:35	24.8	24.8	24.8	67	15.4	1	4	292	0.00	30.262 
02:40	25.0	25.0	25.0	67	15.6	2	5	270	0.00	30.263 
02:45	25.0	25.0	25.0	67	15.6	1	4	270	0.00	30.262 
02:50	25.0	25.0	25.0	67	15.6	1	5	248	0.00	30.263 
02:55	25.0	25.0	25.0	67	15.6	1	3	292	0.00	30.263 
03:00	25.0	25.0	25.0	67	15.6	1	5	270	0.00	30.263 
03:05	25.0	25.0	25.0	67	15.6	1	4	22	0.00	30.265 
03:10	25.0	25.0	25.0	67	15.6	0	3	338	0.00	30.265 
03:15	25.0	25.0	25.0	67	15.6	1	5	338	0.00	30.264 
03:20	24.8	24.8	24.8	67	15.4	1	4	292	0.00	30.265 
03:25	24.8	24.8	24.8	67	15.4	1	5	315	0.00	30.266 
03:30	24.8	24.8	24.8	66	15.1	1	4	315	0.00	30.265 
03:35	24.8	24.8	24.8	66	15.1	1	3	315	0.00	30.266 
03:40	24.8	24.8	24.8	66	15.1	1	4	338	0.00	30.266 
03:45	24.8	24.8	24.8	66	15.1	2	4	292	0.00	30.265 
03:50	24.8	24.8	24.8	66	15.1	1	4	270	0.00	30.265 
03:55	24.7	24.7	24.7	66	15.0	2	5	270	0.00	30.265 
04:00	24.7	24.7	24.7	65	14.6	2	5	270	0.00	30.265 
04:05	24.5	24.5	24.5	65	14.4	2	6	292	0.00	30.273 
04:10	24.5	24.5	24.5	66	14.8	1	3	338	0.00	30.278 
04:15	24.4	24.4	24.4	65	14.3	1	4	270	0.00	30.270 
04:20	24.4	24.4	24.4	65	14.3	1	5	338	0.00	30.278 
04:25	24.2	24.2	24.2	65	14.2	1	3	315	0.00	30.281 
04:30	24.1	24.1	24.1	66	14.4	1	3	292	0.00	30.272 
04:35	23.9	23.9	23.9	66	14.2	1	3	225	0.00	30.276 
04:40	23.8	23.8	23.8	66	14.1	1	4	292	0.00	30.278 
04:45	23.6	23.6	23.6	67	14.3	0	2	292	0.00	30.272 
04:50	23.5	23.5	23.5	67	14.2	0	2	292	0.00	30.267 
04:55	23.3	23.3	23.3	68	14.3	0	2	292	0.00	30.268 
05:00	23.3	23.3	23.3	68	14.3	1	2	315	0.00	30.274 
05:05	23.5	23.5	23.5	68	14.5	1	3	315	0.00	30.273 
05:10	23.5	23.5	23.5	68	14.5	1	3	248	0.00	30.271 
05:15	23.5	23.5	23.5	68	14.5	1	5	0	0.00	30.275 
05:20	23.6	23.6	23.6	68	14.6	0	2	0	0.00	30.280 
05:25	23.6	23.6	23.6	68	14.6	0	2	270	0.00	30.281 
05:30	23.6	23.6	23.6	68	14.6	1	4	0	0.00	30.277 
05:35	23.6	23.6	23.6	68	14.6	1	3	270	0.00	30.273 
05:40	23.6	23.6	23.6	68	14.6	1	2	292	0.00	30.274 
05:45	23.6	23.6	23.6	68	14.6	1	3	338	0.00	30.281 
05:50	23.6	23.6	23.6	69	14.9	1	3	270	0.00	30.281 
05:55	23.6	23.6	23.6	69	14.9	1	4	338	0.00	30.282 
06:00	23.6	23.6	23.6	68	14.6	1	3	315	0.00	30.283 
06:05	23.6	23.6	23.6	68	14.6	1	3	248	0.00	30.282 
06:10	23.6	23.6	23.6	69	14.9	1	2	248	0.00	30.283 
06:15	23.6	23.6	23.6	69	14.9	1	5	270	0.00	30.283 
06:20	23.6	23.6	23.6	69	14.9	0	3	315	0.00	30.285 
06:25	23.6	23.6	23.6	68	14.6	1	5	292	0.00	30.288 
06:30	23.5	23.5	23.5	69	14.9	1	4	315	0.00	30.288 
06:35	23.5	23.5	23.5	69	14.9	1	4	248	0.00	30.290 
06:40	23.5	23.5	23.5	69	14.9	1	5	270	0.00	30.292 
06:45	23.5	23.5	23.5	69	14.9	1	4	270	0.00	30.290 
06:50	23.3	23.3	23.3	69	14.7	1	3	338	0.00	30.287 
06:55	23.3	23.3	23.3	69	14.7	0	2	270	0.00	30.291 
07:00	23.2	23.2	23.2	69	14.6	0	3	270	0.00	30.293 
07:05	22.9	22.9	22.9	69	14.3	1	3	292	0.00	30.294 
07:10	22.7	22.7	22.7	70	14.4	1	3	292	0.00	30.294 
07:15	22.5	22.5	22.5	70	14.2	1	3	315	0.00	30.297 
07:20	22.4	22.4	22.4	70	14.1	1	3	270	0.00	30.299 
07:25	22.2	22.2	22.2	71	14.3	1	2	248	0.00	30.300 
07:30	22.1	22.1	22.1	72	14.5	0	2	248	0.00	30.303 
07:35	21.9	21.9	21.9	72	14.3	0	2	248	0.00	30.302 
07:40	21.8	21.8	21.8	72	14.2	0	3	248	0.00	30.300 
07:45	21.6	21.6	21.6	73	14.3	0	1	248	0.00	30.301 
07:50	21.4	21.4	21.4	73	14.1	0	3	248	0.00	30.304 
07:55	21.3	21.3	21.3	73	14.0	0	1	248	0.00	30.304 
08:00	21.1	21.1	21.1	74	14.1	0	1	248	0.00	30.306 
08:05	21.0	21.0	21.0	74	14.0	0	1	248	0.00	30.307 
08:10	20.8	20.8	20.8	75	14.1	0	1	248	0.00	30.308 
08:15	20.8	20.8	20.8	75	14.1	0	1	248	0.00	30.304 
08:20	20.6	20.6	20.6	75	14.0	0	2	248	0.00	30.306 
08:25	20.8	20.8	20.8	76	14.5	0	2	248	0.00	30.311 
08:30	21.0	21.0	21.0	76	14.6	0	3	248	0.00	30.315 
08:35	21.1	21.1	21.1	76	14.7	0	3	248	0.00	30.309 
08:40	21.3	21.3	21.3	76	14.9	0	2	248	0.00	30.307 
08:45	21.6	21.6	21.6	76	15.2	1	4	248	0.00	30.303 
08:50	21.8	21.8	21.8	75	15.1	0	3	248	0.00	30.301 
08:55	22.1	22.1	22.1	74	15.1	0	2	248	0.00	30.300 
09:00	22.1	22.1	22.1	73	14.8	1	3	248	0.00	30.299 
09:05	22.2	22.2	22.2	73	14.9	1	4	270	0.00	30.301 
09:10	22.2	22.2	22.2	73	14.9	1	3	248	0.00	30.299 
09:15	22.2	22.2	22.2	73	14.9	1	4	270	0.00	30.302 
09:20	22.4	22.4	22.4	72	14.8	1	3	248	0.00	30.300 
09:25	22.4	22.4	22.4	72	14.8	1	3	225	0.00	30.298 
09:30	22.5	22.5	22.5	71	14.5	1	3	270	0.00	30.301 
09:35	22.5	22.5	22.5	71	14.5	1	4	248	0.00	30.302 
09:40	22.7	22.7	22.7	71	14.7	1	3	248	0.00	30.303 
09:45	23.0	23.0	23.0	71	15.0	1	3	292	0.00	30.303 
09:50	23.2	23.2	23.2	70	14.9	1	5	248	0.00	30.300 
09:55	23.3	23.3	23.3	69	14.7	1	3	270	0.00	30.299 
10:00	23.6	23.6	23.6	69	14.9	1	3	315	0.00	30.295 
10:05	23.9	23.9	23.9	68	14.9	1	3	315	0.00	30.298 
10:10	24.4	24.4	24.4	67	15.0	0	2	292	0.00	30.297 
10:15	24.2	24.2	24.2	66	14.5	1	3	270	0.00	30.297 
10:20	24.4	24.4	24.4	67	15.0	1	3	270	0.00	30.296 
10:25	24.4	24.4	24.4	66	14.7	1	5	248	0.00	30.290 
10:30	24.7	24.7	24.7	66	15.0	2	6	270	0.00	30.292 
10:35	24.7	24.7	24.7	65	14.6	1	5	248	0.00	30.294 
10:40	24.7	24.7	24.7	65	14.6	1	4	248	0.00	30.286 
10:45	24.7	24.7	24.7	64	14.3	0	2	248	0.00	30.286 
10:50	24.8	24.8	24.8	64	14.4	0	2	248	0.00	30.283 
10:55	25.3	25.3	25.3	64	14.9	0	2	248	0.00	30.286 
11:00	25.6	25.6	25.6	63	14.8	1	4	270	0.00	30.287 
11:05	25.4	25.4	25.4	63	14.6	1	4	270	0.00	30.284 
11:10	25.4	25.4	25.4	64	14.9	1	4	248	0.00	30.281 
11:15	25.6	25.6	25.6	64	15.1	1	3	248	0.00	30.272 
11:20	25.6	25.6	25.6	61	14.0	1	3	248	0.00	30.270 
11:25	25.6	25.6	25.6	62	14.4	1	6	248	0.00	30.271 
11:30	25.7	25.7	25.7	62	14.5	1	3	248	0.00	30.270 
11:35	25.8	25.8	25.8	62	14.6	0	2	248	0.00	30.266 
11:40	26.0	26.0	26.0	61	14.4	1	4	248	0.00	30.257 
11:45	26.0	26.0	26.0	60	14.0	0	2	248	0.00	30.251 
11:50	26.1	26.1	26.1	59	13.8	1	4	248	0.00	30.245 
11:55	26.3	26.3	26.3	58	13.6	1	5	248	0.00	30.243 
12:00	26.4	26.4	26.4	59	14.0	1	2	248	0.00	30.241 
12:05	26.6	26.6	26.6	60	14.6	1	3	270	0.00	30.240 
12:10	26.4	26.4	26.4	59	14.0	1	4	248	0.00	30.240 
12:15	26.6	26.6	26.6	60	14.6	1	4	248	0.00	30.241 
12:20	27.0	27.0	27.0	58	14.2	1	4	248	0.00	30.240 
12:25	27.3	27.3	27.3	58	14.5	1	3	248	0.00	30.234 
12:30	27.8	27.8	27.8	58	15.0	1	3	270	0.00	30.228 
12:35	27.9	27.9	27.9	57	14.7	1	5	248	0.00	30.224 
12:40	28.2	28.2	28.2	57	14.9	1	4	248	0.00	30.224 
12:45	28.4	28.4	28.4	57	15.1	1	4	270	0.00	30.221 
12:50	28.5	28.5	28.5	54	14.0	1	6	270	0.00	30.220 
12:55	28.5	28.5	28.5	54	14.0	1	4	248	0.00	30.218 
13:00	28.8	28.8	28.8	54	14.3	1	4	270	0.00	30.218 
13:05	29.0	29.0	29.0	54	14.5	1	3	248	0.00	30.207 
13:10	29.0	29.0	29.0	53	14.0	1	3	315	0.00	30.203 
13:15	29.0	29.0	29.0	53	14.0	1	5	315	0.00	30.200 
13:20	29.0	29.0	29.0	54	14.5	0	2	338	0.00	30.201 
13:25	29.3	29.3	29.3	55	15.2	1	4	248	0.00	30.195 
13:30	29.4	29.4	29.4	55	15.3	1	4	270	0.00	30.191 
13:35	29.4	29.4	29.4	54	14.8	1	3	248	0.00	30.191 
13:40	29.3	29.3	29.3	54	14.7	0	3	315	0.00	30.188 
13:45	29.3	29.3	29.3	54	14.7	1	6	270	0.00	30.186 
13:50	29.3	29.3	29.3	54	14.7	1	3	248	0.00	30.184 
13:55	29.4	29.4	29.4	54	14.8	1	3	270	0.00	30.187 
14:00	29.3	29.3	29.3	52	13.9	1	4	270	0.00	30.182 
14:05	29.1	29.1	29.1	53	14.1	1	5	248	0.00	30.180 
14:10	29.0	29.0	29.0	55	14.9	1	3	292	0.00	30.181 
14:15	29.1	29.1	29.1	54	14.6	1	2	248	0.00	30.177 
14:20	29.1	29.1	29.1	55	15.0	0	2	248	0.00	30.179 
14:25	29.3	29.3	29.3	54	14.7	1	3	248	0.00	30.179 
14:30	29.4	29.4	29.4	54	14.8	0	2	248	0.00	30.176 
14:35	29.7	29.7	29.7	54	15.1	0	3	248	0.00	30.175 
14:40	29.8	29.8	29.8	52	14.3	1	4	248	0.00	30.176 
14:45	29.7	29.7	29.7	53	14.7	1	4	315	0.00	30.176 
14:50	29.7	29.7	29.7	51	13.8	1	3	248	0.00	30.177 
14:55	29.7	29.7	29.7	52	14.3	1	5	292	0.00	30.176 
15:00	29.7	29.7	29.7	53	14.7	1	4	248	0.00	30.176 
15:05	29.7	29.7	29.7	52	14.3	1	4	248	0.00	30.175 
15:10	29.7	29.7	29.7	52	14.3	2	5	248	0.00	30.176 
15:15	29.7	29.7	29.7	52	14.3	1	5	248	0.00	30.176 
15:20	29.7	29.7	29.7	52	14.3	0	2	248	0.00	30.177 
15:25	29.7	29.7	29.7	51	13.8	0	2	248	0.00	30.178 
15:30	29.8	29.8	29.8	51	13.9	0	2	248	0.00	30.176 
15:35	30.1	30.1	30.1	50	13.7	1	3	248	0.00	30.175 
15:40	30.4	30.4	30.4	50	14.0	1	5	225	0.00	30.176 
15:45	30.3	30.3	30.3	50	13.9	0	2	248	0.00	30.176 
15:50	30.3	30.3	30.3	50	13.9	1	5	248	0.00	30.176 
15:55	30.4	30.4	30.4	50	14.0	1	3	248	0.00	30.173 
16:00	30.4	30.4	30.4	49	13.6	1	4	248	0.00	30.175 
16:05	30.3	30.3	30.3	49	13.5	0	3	248	0.00	30.176 
16:10	30.1	30.1	30.1	49	13.3	0	2	248	0.00	30.176 
16:15	30.0	30.0	30.0	50	13.6	1	4	248	0.00	30.172 
16:20	29.7	29.7	29.7	50	13.4	1	3	248	0.00	30.171 
16:25	29.4	29.4	29.4	50	13.1	0	1	248	0.00	30.167 
16:30	29.3	29.3	29.3	50	13.0	1	4	248	0.00	30.173 
16:35	29.0	29.0	29.0	50	12.7	1	4	248	0.00	30.175 
16:40	28.8	28.8	28.8	50	12.5	0	2	248	0.00	30.175 
16:45	28.7	28.7	28.7	50	12.4	1	3	248	0.00	30.167 
16:50	28.4	28.4	28.4	51	12.6	0	1	248	0.00	30.167 
16:55	28.2	28.2	28.2	52	12.9	0	2	248	0.00	30.174 
17:00	27.9	27.9	27.9	52	12.6	0	2	248	0.00	30.172 
17:05	27.8	27.8	27.8	52	12.5	0	1	248	0.00	30.168 
17:10	27.6	27.6	27.6	52	12.3	0	2	248	0.00	30.164 
17:15	27.5	27.5	27.5	52	12.2	0	1	248	0.00	30.162 
17:20	27.2	27.2	27.2	53	12.4	0	1	248	0.00	30.165 
17:25	27.0	27.0	27.0	54	12.6	0	1	248	0.00	30.163 
17:30	26.7	26.7	26.7	54	12.3	0	0	---	0.00	30.158 
17:35	26.4	26.4	26.4	54	12.0	0	0	---	0.00	30.152 
17:40	26.1	26.1	26.1	54	11.8	0	0	---	0.00	30.151 
17:45	25.7	25.7	25.7	56	12.2	0	0	---	0.00	30.147 
17:50	25.4	25.4	25.4	57	12.3	0	0	---	0.00	30.144 
17:55	25.0	25.0	25.0	57	11.9	0	0	---	0.00	30.145 
18:00	24.7	24.7	24.7	58	12.1	0	0	---	0.00	30.143 
18:05	24.2	24.2	24.2	59	12.0	0	0	---	0.00	30.143 
18:10	23.8	23.8	23.8	59	11.6	0	0	---	0.00	30.144 
18:15	23.3	23.3	23.3	61	11.9	0	0	---	0.00	30.139 
18:20	22.9	22.9	22.9	62	11.9	0	0	---	0.00	30.135 
18:25	22.5	22.5	22.5	64	12.2	0	0	---	0.00	30.135 
18:30	22.2	22.2	22.2	64	11.9	0	0	---	0.00	30.137 
18:35	21.9	21.9	21.9	65	12.0	0	1	248	0.00	30.139 
18:40	21.8	21.8	21.8	65	11.9	0	0	---	0.00	30.137 
18:45	21.6	21.6	21.6	65	11.7	0	0	---	0.00	30.135 
18:50	21.3	21.3	21.3	67	12.1	0	0	---	0.00	30.131 
18:55	21.1	21.1	21.1	68	12.2	0	0	---	0.00	30.124 
19:00	21.0	21.0	21.0	68	12.1	0	0	---	0.00	30.129 
19:05	20.8	20.8	20.8	69	12.3	0	0	---	0.00	30.132 
19:10	20.6	20.6	20.6	69	12.1	0	0	---	0.00	30.137 
19:15	20.5	20.5	20.5	69	12.0	0	0	---	0.00	30.129 
19:20	20.2	20.2	20.2	70	12.0	0	0	---	0.00	30.129 
19:25	20.0	20.0	20.0	70	11.8	0	0	---	0.00	30.131 
19:30	19.7	19.7	19.7	71	11.8	0	0	---	0.00	30.125 
19:35	19.5	19.5	19.5	72	12.0	0	0	---	0.00	30.125 
19:40	19.4	19.4	19.4	72	11.9	0	0	---	0.00	30.124 
19:45	19.1	19.1	19.1	72	11.6	0	0	---	0.00	30.122 
19:50	18.8	18.8	18.8	73	11.6	0	0	---	0.00	30.123 
19:55	18.6	18.6	18.6	73	11.4	0	0	---	0.00	30.121 
20:00	18.3	18.3	18.3	74	11.4	0	0	---	0.00	30.119 
20:05	18.1	18.1	18.1	75	11.5	0	0	---	0.00	30.123 
20:10	18.0	18.0	18.0	75	11.4	0	0	---	0.00	30.124 
20:15	17.7	17.7	17.7	75	11.1	0	0	---	0.00	30.123 
20:20	17.3	17.3	17.3	76	11.1	0	0	---	0.00	30.121 
20:25	17.2	17.2	17.2	76	11.0	0	0	---	0.00	30.122 
20:30	17.0	17.0	17.0	77	11.1	0	0	---	0.00	30.116 
20:35	16.7	16.7	16.7	78	11.1	0	0	---	0.00	30.124 
20:40	16.7	16.7	16.7	79	11.3	0	0	---	0.00	30.123 
20:45	16.5	16.5	16.5	79	11.1	0	0	---	0.00	30.121 
20:50	16.4	16.4	16.4	79	11.0	0	0	---	0.00	30.123 
20:55	16.4	16.4	16.4	80	11.3	0	0	---	0.00	30.125 
21:00	16.2	16.2	16.2	80	11.1	0	0	---	0.00	30.124 
21:05	16.1	16.1	16.1	81	11.3	0	0	---	0.00	30.118 
21:10	15.9	15.9	15.9	81	11.1	0	0	---	0.00	30.118 
21:15	15.7	15.7	15.7	81	10.9	0	0	---	0.00	30.115 
21:20	15.6	15.6	15.6	81	10.8	0	0	---	0.00	30.112 
21:25	15.4	15.4	15.4	82	10.9	0	0	---	0.00	30.111 
21:30	15.4	15.4	15.4	82	10.9	0	0	---	0.00	30.112 
21:35	15.4	15.4	15.4	83	11.2	0	0	---	0.00	30.113 
21:40	15.2	15.2	15.2	83	11.0	0	0	---	0.00	30.112 
21:45	15.2	15.2	15.2	83	11.0	0	0	---	0.00	30.107 
21:50	15.1	15.1	15.1	84	11.2	0	0	---	0.00	30.110 
21:55	15.1	15.1	15.1	84	11.2	0	0	---	0.00	30.112 
22:00	15.1	15.1	15.1	84	11.2	0	0	---	0.00	30.105 
22:05	14.9	14.9	14.9	84	11.0	0	0	---	0.00	30.097 
22:10	14.8	14.8	14.8	84	10.9	0	0	---	0.00	30.094 
22:15	14.8	14.8	14.8	85	11.1	0	0	---	0.00	30.094 
22:20	14.8	14.8	14.8	85	11.1	0	0	---	0.00	30.093 
22:25	14.6	14.6	14.6	85	10.9	0	0	---	0.00	30.091 
22:30	14.4	14.4	14.4	85	10.7	0	0	---	0.00	30.094 
22:35	14.3	14.3	14.3	85	10.6	0	0	---	0.00	30.095 
22:40	14.3	14.3	14.3	85	10.6	0	0	---	0.00	30.094 
22:45	14.1	14.1	14.1	85	10.4	0	0	---	0.00	30.092 
22:50	14.1	14.1	14.1	86	10.7	0	0	---	0.00	30.094 
22:55	14.1	14.1	14.1	86	10.7	0	0	---	0.00	30.095 
23:00	14.1	14.1	14.1	86	10.7	0	0	---	0.00	30.089 
23:05	14.0	14.0	14.0	86	10.6	0	0	---	0.00	30.086 
23:10	14.1	14.1	14.1	86	10.7	0	0	---	0.00	30.081 
23:15	14.1	14.1	14.1	86	10.7	0	0	---	0.00	30.079 
23:20	14.1	14.1	14.1	86	10.7	0	0	---	0.00	30.077 
23:25	14.1	14.1	14.1	86	10.7	0	0	---	0.00	30.074 
23:30	14.0	14.0	14.0	87	10.9	0	0	---	0.00	30.066 
23:35	14.0	14.0	14.0	87	10.9	0	0	---	0.00	30.064 
23:40	13.8	13.8	13.8	87	10.7	0	0	---	0.00	30.063 
23:45	13.8	13.8	13.8	87	10.7	0	0	---	0.00	30.061 
23:50	13.6	13.6	13.6	87	10.5	0	0	---	0.00	30.057 
23:55	13.6	13.6	13.6	87	10.5	0	0	---	0.00	30.055 

CoCoRaHS
IN-AL-39
A2 Web Hosting
Creative Commons License
GoDaddy
search engine by freefind advanced

loaded 2018-11-13 01:32:59 • last modified 2010-11-18 10:43:29
Privacy PolicyDisclaimer
• wx.awcolley.com is powered by PmWiki v.2002016 •
• all content (unless otherwise noted) © 2018 A W Colley